Talladega, Alabama
Current Conditions -  °F | °C
As of 10:35 PM on Sunday 21 Dec 2014 (Local Time) from KASN Reporting Station
Overcast Overcast  
Wind Chill: 11°   Ceiling: 1600
Heat Index: 11°   Visibility: 10mi
Dew Point:   Wind: 5mph
Humidity: 82%   Direction: 80°E
Pressure: 30.07"   Gusts: NA
Location:  33.43°N, 86.1°W
Report Text: KASN 220435Z AUTO 08004KT 10SM OVC016 11/08 A3007 RMK AO2 T01100080
Loading
Personal Weather Stations






























Interactive Weather Map New forecast layout! Learn more

10-Day Weather Forecast

Advertisements
Track Severe Weather on mobile